Hagen — V2PB3 — position and weather

sailwx.info

Track history (hours):
 
Tides and Currents Weather Stations Pressure Air Temp Water Temp Dewpoint Dewpoint Depression Visibility Wind Speed Wind Dir Waves Ship Positions

Hagen

Last reported at 2015-Aug-25 19:27 UTC. Time now 2015-Sep-03 15:14 UTC.
Position N 62°16' W 008°08'.
Warning: this ship's position is 8 days out of date.

Length 89 m; draft 4 m.

Type: Cargo ship. MMSI: 304010898.

Date/timePositionNaut miles runAvg speedWind from/ knotsBaromVisibWave heightAir tempDewpointWater temp
2015-Aug-25 19:27N 62°16' W 008°08'9 8.8
2015-Aug-25 18:26N 62°20' W 007°51'17 8.7
2015-Aug-25 16:28N 62°30' W 007°20'9 9.5
2015-Aug-25 15:33N 62°34' W 007°05'1010.0
2015-Aug-25 14:31N 62°39' W 006°45'  
2015-Aug-23 05:14N 67°01' E 012°37'6 9.5
2015-Aug-23 04:33N 67°04' E 012°51'9 9.5
2015-Aug-23 03:33N 67°09' E 013°13'10 9.6
2015-Aug-23 02:33N 67°13' E 013°35'9 8.6
2015-Aug-23 01:33N 67°12' E 013°57'1010.3
2015-Aug-23 00:33N 67°14' E 014°23'9 8.7
2015-Aug-22 23:33N 67°14' E 014°46'8 8.2
2015-Aug-22 22:33N 67°15' E 015°07'8 8.5
2015-Aug-22 21:33N 67°10' E 015°26'4 4.0
2015-Aug-22 20:32N 67°06' E 015°23'0 0.0
2015-Aug-22 19:32N 67°06' E 015°23'0 0.0
2015-Aug-22 18:32N 67°06' E 015°23'0 0.0
2015-Aug-22 17:32N 67°06' E 015°23'0 0.0
2015-Aug-22 16:32N 67°06' E 015°23'0 0.0
2015-Aug-22 15:32N 67°06' E 015°23'0 0.0
2015-Aug-22 14:32N 67°06' E 015°23'0 0.0
2015-Aug-22 13:32N 67°06' E 015°23'0 0.0
2015-Aug-22 12:32N 67°06' E 015°23'0 0.0
2015-Aug-22 11:32N 67°06' E 015°23'0 0.0
2015-Aug-22 10:32N 67°06' E 015°23'0 0.0
2015-Aug-22 09:32N 67°06' E 015°23'0 0.0
2015-Aug-22 08:32N 67°06' E 015°23'0 0.0
2015-Aug-22 07:32N 67°06' E 015°23'0 0.0
2015-Aug-22 06:32N 67°06' E 015°23'0 0.0
2015-Aug-22 05:32N 67°06' E 015°23'0 0.0
2015-Aug-22 04:32N 67°06' E 015°23'0 0.0
2015-Aug-22 03:29N 67°06' E 015°23'0 0.0
2015-Aug-22 02:32N 67°06' E 015°23'0 0.0
2015-Aug-22 01:32N 67°06' E 015°23'0 0.0
2015-Aug-22 00:32N 67°06' E 015°23'0 0.0
2015-Aug-21 23:32N 67°06' E 015°23'0 0.0
2015-Aug-21 22:32N 67°06' E 015°23'0 0.0
2015-Aug-21 21:29N 67°06' E 015°23'0 0.0
2015-Aug-21 20:32N 67°06' E 015°23'0 0.0
2015-Aug-21 19:32N 67°06' E 015°23'0 0.0
2015-Aug-21 18:32N 67°06' E 015°23'0 0.0
2015-Aug-21 17:32N 67°06' E 015°23'0 0.0
2015-Aug-21 16:32N 67°06' E 015°23'0 0.0
2015-Aug-21 15:32N 67°06' E 015°23'0 0.0
2015-Aug-21 14:32N 67°06' E 015°23'0 0.0
2015-Aug-21 13:23N 67°06' E 015°23'0 0.0
2015-Aug-21 12:32N 67°06' E 015°23'0 0.0
2015-Aug-21 11:32N 67°06' E 015°23'0 0.0
2015-Aug-21 10:32N 67°06' E 015°23'0 0.0
2015-Aug-21 09:32N 67°06' E 015°23'0 0.0
2015-Aug-21 08:32N 67°06' E 015°23'0 0.0
2015-Aug-21 07:32N 67°06' E 015°23'0 0.0
2015-Aug-21 06:32N 67°06' E 015°23'0 0.0
2015-Aug-21 05:32N 67°06' E 015°23'0 0.0
2015-Aug-21 04:32N 67°06' E 015°23'0 0.0
2015-Aug-21 03:32N 67°06' E 015°23'0 0.0
2015-Aug-21 02:32N 67°06' E 015°23'0 0.0
2015-Aug-21 01:32N 67°06' E 015°23'0 0.0
2015-Aug-21 00:32N 67°06' E 015°23'0 0.0
2015-Aug-20 23:32N 67°06' E 015°23'0 0.0
2015-Aug-20 22:32N 67°06' E 015°23'0 0.0
2015-Aug-20 21:32N 67°06' E 015°23'0 0.0
2015-Aug-20 20:32N 67°06' E 015°23'0 0.0
2015-Aug-20 19:32N 67°06' E 015°23'0 0.0
2015-Aug-20 18:32N 67°06' E 015°23'0 0.0
2015-Aug-20 17:29N 67°06' E 015°23'0 0.0
2015-Aug-20 16:23N 67°06' E 015°23'0 0.0
2015-Aug-20 15:32N 67°06' E 015°23'0 0.0
2015-Aug-20 14:32N 67°06' E 015°23'0 0.0
2015-Aug-20 13:29N 67°06' E 015°23'0 0.0
2015-Aug-20 12:32N 67°06' E 015°23'0 0.0
2015-Aug-20 11:32N 67°06' E 015°23'0 0.0
2015-Aug-20 10:26N 67°06' E 015°23'0 0.0
2015-Aug-20 09:32N 67°06' E 015°23'0 0.0
2015-Aug-20 08:32N 67°06' E 015°23'0 0.0
2015-Aug-20 07:32N 67°06' E 015°23'0 0.0
2015-Aug-20 06:32N 67°06' E 015°23'0 0.0
2015-Aug-20 05:26N 67°06' E 015°23'0 0.0
2015-Aug-20 04:32N 67°06' E 015°23'0 0.0
2015-Aug-20 03:32N 67°06' E 015°23'0 0.0
2015-Aug-20 02:29N 67°06' E 015°23'0 0.0
2015-Aug-20 01:32N 67°06' E 015°23'0 0.0
2015-Aug-20 00:29N 67°06' E 015°23'0 0.0
2015-Aug-19 23:32N 67°06' E 015°23'0 0.0
2015-Aug-19 22:32N 67°06' E 015°23'0 0.0
2015-Aug-19 21:32N 67°06' E 015°23'0 0.0
2015-Aug-19 20:32N 67°06' E 015°23'0 0.0
2015-Aug-19 19:32N 67°06' E 015°23'0 0.0
2015-Aug-19 18:32N 67°06' E 015°23'0 0.0
2015-Aug-19 17:32N 67°06' E 015°23'0 0.0
2015-Aug-19 16:32N 67°06' E 015°23'0 0.0
2015-Aug-19 15:26N 67°06' E 015°23'0 0.0
2015-Aug-19 14:32N 67°06' E 015°23'0 0.0
2015-Aug-19 13:32N 67°06' E 015°23'0 0.0
2015-Aug-19 12:32N 67°06' E 015°23'0 0.0
2015-Aug-19 11:29N 67°06' E 015°23'0 0.0
2015-Aug-19 10:32N 67°06' E 015°23'0 0.0
2015-Aug-19 09:29N 67°06' E 015°23'0 0.0
2015-Aug-19 08:32N 67°06' E 015°23'0 0.0
2015-Aug-19 07:32N 67°06' E 015°23'0 0.0
2015-Aug-19 06:29N 67°06' E 015°23'0 0.0
2015-Aug-19 05:32N 67°06' E 015°23'0 0.0
2015-Aug-19 04:32N 67°06' E 015°23'0 0.0
2015-Aug-19 03:32N 67°06' E 015°23'0 0.0
2015-Aug-19 02:32N 67°06' E 015°23'0 0.0
2015-Aug-19 01:32N 67°06' E 015°23'0 0.0
2015-Aug-19 00:29N 67°06' E 015°23'0 0.0
2015-Aug-18 23:32N 67°06' E 015°23'0 0.0
2015-Aug-18 22:29N 67°06' E 015°23'0 0.0
2015-Aug-18 21:32N 67°06' E 015°23'0 0.0
2015-Aug-18 20:32N 67°06' E 015°23'0 0.0
2015-Aug-18 19:29N 67°06' E 015°23'0 0.0
2015-Aug-18 18:32N 67°06' E 015°23'0 0.0
2015-Aug-18 17:32N 67°06' E 015°23'0 0.0
2015-Aug-18 16:32N 67°06' E 015°23'0 0.0
2015-Aug-18 15:32N 67°06' E 015°23'0 0.0
2015-Aug-18 10:29N 67°06' E 015°23'0 0.0
2015-Aug-18 09:32N 67°06' E 015°23'0 0.0
2015-Aug-18 08:32N 67°06' E 015°23'0 0.0
2015-Aug-18 07:29N 67°06' E 015°23'0 0.0
2015-Aug-18 06:29N 67°06' E 015°23'0 0.0
2015-Aug-18 05:32N 67°06' E 015°23'0 0.0
2015-Aug-18 04:32N 67°06' E 015°23'0 0.0
2015-Aug-18 04:11N 67°06' E 015°23'0 0.0
2015-Aug-18 04:08N 67°06' E 015°23'0 0.0
2015-Aug-18 03:32N 67°06' E 015°23'0 0.0
2015-Aug-18 02:32N 67°06' E 015°23'0 0.0
2015-Aug-18 01:32N 67°06' E 015°23'0 0.0
2015-Aug-18 00:32N 67°06' E 015°23'0 0.0
2015-Aug-17 23:32N 67°06' E 015°23'0 0.0
2015-Aug-17 22:32N 67°06' E 015°23'0 0.0
2015-Aug-17 21:32N 67°06' E 015°23'0 0.0
2015-Aug-17 20:32N 67°06' E 015°23'0 0.0
2015-Aug-17 19:29N 67°06' E 015°23'0 0.0
2015-Aug-17 18:29N 67°06' E 015°23'0 0.0
2015-Aug-17 17:32N 67°06' E 015°23'0 0.0
2015-Aug-17 16:32N 67°06' E 015°23'0 0.0
2015-Aug-17 15:32N 67°06' E 015°23'0 0.0
2015-Aug-17 14:29N 67°06' E 015°23'0 0.0
2015-Aug-17 13:32N 67°06' E 015°23'0 0.0
2015-Aug-17 12:32N 67°06' E 015°23'0 0.1
2015-Aug-17 11:33N 67°07' E 015°24'8 7.6
2015-Aug-17 10:33N 67°13' E 015°15'1010.0
2015-Aug-17 09:33N 67°15' E 014°50'7 7.2
2015-Aug-17 08:33N 67°15' E 014°31'6 5.5
2015-Aug-17 07:33N 67°14' E 014°17'7 7.2
2015-Aug-17 06:33N 67°12' E 013°59'9 8.7
2015-Aug-17 05:33N 67°11' E 013°37'1010.2
2015-Aug-17 04:33N 67°06' E 013°15'44 8.5
2015-Aug-16 23:27N 66°37' E 011°51'7 7.5
2015-Aug-16 22:27N 66°31' E 011°40'  
Track history (hours):
 
Tides and Currents Weather Stations Pressure Air Temp Water Temp Dewpoint Dewpoint Depression Visibility Wind Speed Wind Dir Waves Ship Positions

Hagen

Last reported at 2015-Aug-25 19:27 UTC. Time now 2015-Sep-03 15:14 UTC.
Position N 62°16' W 008°08'.
Warning: this ship's position is 8 days out of date.

Length 89 m; draft 4 m.

Type: Cargo ship. MMSI: 304010898.

Date/timePositionNaut miles runAvg speedWind from/ knotsBaromVisibWave heightAir tempDewpointWater temp
2015-Aug-25 19:27N 62°16' W 008°08'9 8.8
2015-Aug-25 18:26N 62°20' W 007°51'17 8.7
2015-Aug-25 16:28N 62°30' W 007°20'9 9.5
2015-Aug-25 15:33N 62°34' W 007°05'1010.0
2015-Aug-25 14:31N 62°39' W 006°45'  
2015-Aug-23 05:14N 67°01' E 012°37'6 9.5
2015-Aug-23 04:33N 67°04' E 012°51'9 9.5
2015-Aug-23 03:33N 67°09' E 013°13'10 9.6
2015-Aug-23 02:33N 67°13' E 013°35'9 8.6
2015-Aug-23 01:33N 67°12' E 013°57'1010.3
2015-Aug-23 00:33N 67°14' E 014°23'9 8.7
2015-Aug-22 23:33N 67°14' E 014°46'8 8.2
2015-Aug-22 22:33N 67°15' E 015°07'8 8.5
2015-Aug-22 21:33N 67°10' E 015°26'4 4.0
2015-Aug-22 20:32N 67°06' E 015°23'0 0.0
2015-Aug-22 19:32N 67°06' E 015°23'0 0.0
2015-Aug-22 18:32N 67°06' E 015°23'0 0.0
2015-Aug-22 17:32N 67°06' E 015°23'0 0.0
2015-Aug-22 16:32N 67°06' E 015°23'0 0.0
2015-Aug-22 15:32N 67°06' E 015°23'0 0.0
2015-Aug-22 14:32N 67°06' E 015°23'0 0.0
2015-Aug-22 13:32N 67°06' E 015°23'0 0.0
2015-Aug-22 12:32N 67°06' E 015°23'0 0.0
2015-Aug-22 11:32N 67°06' E 015°23'0 0.0
2015-Aug-22 10:32N 67°06' E 015°23'0 0.0
2015-Aug-22 09:32N 67°06' E 015°23'0 0.0
2015-Aug-22 08:32N 67°06' E 015°23'0 0.0
2015-Aug-22 07:32N 67°06' E 015°23'0 0.0
2015-Aug-22 06:32N 67°06' E 015°23'0 0.0
2015-Aug-22 05:32N 67°06' E 015°23'0 0.0
2015-Aug-22 04:32N 67°06' E 015°23'0 0.0
2015-Aug-22 03:29N 67°06' E 015°23'0 0.0
2015-Aug-22 02:32N 67°06' E 015°23'0 0.0
2015-Aug-22 01:32N 67°06' E 015°23'0 0.0
2015-Aug-22 00:32N 67°06' E 015°23'0 0.0
2015-Aug-21 23:32N 67°06' E 015°23'0 0.0
2015-Aug-21 22:32N 67°06' E 015°23'0 0.0
2015-Aug-21 21:29N 67°06' E 015°23'0 0.0
2015-Aug-21 20:32N 67°06' E 015°23'0 0.0
2015-Aug-21 19:32N 67°06' E 015°23'0 0.0
2015-Aug-21 18:32N 67°06' E 015°23'0 0.0
2015-Aug-21 17:32N 67°06' E 015°23'0 0.0
2015-Aug-21 16:32N 67°06' E 015°23'0 0.0
2015-Aug-21 15:32N 67°06' E 015°23'0 0.0
2015-Aug-21 14:32N 67°06' E 015°23'0 0.0
2015-Aug-21 13:23N 67°06' E 015°23'0 0.0
2015-Aug-21 12:32N 67°06' E 015°23'0 0.0
2015-Aug-21 11:32N 67°06' E 015°23'0 0.0
2015-Aug-21 10:32N 67°06' E 015°23'0 0.0
2015-Aug-21 09:32N 67°06' E 015°23'0 0.0
2015-Aug-21 08:32N 67°06' E 015°23'0 0.0
2015-Aug-21 07:32N 67°06' E 015°23'0 0.0
2015-Aug-21 06:32N 67°06' E 015°23'0 0.0
2015-Aug-21 05:32N 67°06' E 015°23'0 0.0
2015-Aug-21 04:32N 67°06' E 015°23'0 0.0
2015-Aug-21 03:32N 67°06' E 015°23'0 0.0
2015-Aug-21 02:32N 67°06' E 015°23'0 0.0
2015-Aug-21 01:32N 67°06' E 015°23'0 0.0
2015-Aug-21 00:32N 67°06' E 015°23'0 0.0
2015-Aug-20 23:32N 67°06' E 015°23'0 0.0
2015-Aug-20 22:32N 67°06' E 015°23'0 0.0
2015-Aug-20 21:32N 67°06' E 015°23'0 0.0
2015-Aug-20 20:32N 67°06' E 015°23'0 0.0
2015-Aug-20 19:32N 67°06' E 015°23'0 0.0
2015-Aug-20 18:32N 67°06' E 015°23'0 0.0
2015-Aug-20 17:29N 67°06' E 015°23'0 0.0
2015-Aug-20 16:23N 67°06' E 015°23'0 0.0
2015-Aug-20 15:32N 67°06' E 015°23'0 0.0
2015-Aug-20 14:32N 67°06' E 015°23'0 0.0
2015-Aug-20 13:29N 67°06' E 015°23'0 0.0
2015-Aug-20 12:32N 67°06' E 015°23'0 0.0
2015-Aug-20 11:32N 67°06' E 015°23'0 0.0
2015-Aug-20 10:26N 67°06' E 015°23'0 0.0
2015-Aug-20 09:32N 67°06' E 015°23'0 0.0
2015-Aug-20 08:32N 67°06' E 015°23'0 0.0
2015-Aug-20 07:32N 67°06' E 015°23'0 0.0
2015-Aug-20 06:32N 67°06' E 015°23'0 0.0
2015-Aug-20 05:26N 67°06' E 015°23'0 0.0
2015-Aug-20 04:32N 67°06' E 015°23'0 0.0
2015-Aug-20 03:32N 67°06' E 015°23'0 0.0
2015-Aug-20 02:29N 67°06' E 015°23'0 0.0
2015-Aug-20 01:32N 67°06' E 015°23'0 0.0
2015-Aug-20 00:29N 67°06' E 015°23'0 0.0
2015-Aug-19 23:32N 67°06' E 015°23'0 0.0
2015-Aug-19 22:32N 67°06' E 015°23'0 0.0
2015-Aug-19 21:32N 67°06' E 015°23'0 0.0
2015-Aug-19 20:32N 67°06' E 015°23'0 0.0
2015-Aug-19 19:32N 67°06' E 015°23'0 0.0
2015-Aug-19 18:32N 67°06' E 015°23'0 0.0
2015-Aug-19 17:32N 67°06' E 015°23'0 0.0
2015-Aug-19 16:32N 67°06' E 015°23'0 0.0
2015-Aug-19 15:26N 67°06' E 015°23'0 0.0
2015-Aug-19 14:32N 67°06' E 015°23'0 0.0
2015-Aug-19 13:32N 67°06' E 015°23'0 0.0
2015-Aug-19 12:32N 67°06' E 015°23'0 0.0
2015-Aug-19 11:29N 67°06' E 015°23'0 0.0
2015-Aug-19 10:32N 67°06' E 015°23'0 0.0
2015-Aug-19 09:29N 67°06' E 015°23'0 0.0
2015-Aug-19 08:32N 67°06' E 015°23'0 0.0
2015-Aug-19 07:32N 67°06' E 015°23'0 0.0
2015-Aug-19 06:29N 67°06' E 015°23'0 0.0
2015-Aug-19 05:32N 67°06' E 015°23'0 0.0
2015-Aug-19 04:32N 67°06' E 015°23'0 0.0
2015-Aug-19 03:32N 67°06' E 015°23'0 0.0
2015-Aug-19 02:32N 67°06' E 015°23'0 0.0
2015-Aug-19 01:32N 67°06' E 015°23'0 0.0
2015-Aug-19 00:29N 67°06' E 015°23'0 0.0
2015-Aug-18 23:32N 67°06' E 015°23'0 0.0
2015-Aug-18 22:29N 67°06' E 015°23'0 0.0
2015-Aug-18 21:32N 67°06' E 015°23'0 0.0
2015-Aug-18 20:32N 67°06' E 015°23'0 0.0
2015-Aug-18 19:29N 67°06' E 015°23'0 0.0
2015-Aug-18 18:32N 67°06' E 015°23'0 0.0
2015-Aug-18 17:32N 67°06' E 015°23'0 0.0
2015-Aug-18 16:32N 67°06' E 015°23'0 0.0
2015-Aug-18 15:32N 67°06' E 015°23'0 0.0
2015-Aug-18 10:29N 67°06' E 015°23'0 0.0
2015-Aug-18 09:32N 67°06' E 015°23'0 0.0
2015-Aug-18 08:32N 67°06' E 015°23'0 0.0
2015-Aug-18 07:29N 67°06' E 015°23'0 0.0
2015-Aug-18 06:29N 67°06' E 015°23'0 0.0
2015-Aug-18 05:32N 67°06' E 015°23'0 0.0
2015-Aug-18 04:32N 67°06' E 015°23'0 0.0
2015-Aug-18 04:11N 67°06' E 015°23'0 0.0
2015-Aug-18 04:08N 67°06' E 015°23'0 0.0
2015-Aug-18 03:32N 67°06' E 015°23'0 0.0
2015-Aug-18 02:32N 67°06' E 015°23'0 0.0
2015-Aug-18 01:32N 67°06' E 015°23'0 0.0
2015-Aug-18 00:32N 67°06' E 015°23'0 0.0
2015-Aug-17 23:32N 67°06' E 015°23'0 0.0
2015-Aug-17 22:32N 67°06' E 015°23'0 0.0
2015-Aug-17 21:32N 67°06' E 015°23'0 0.0
2015-Aug-17 20:32N 67°06' E 015°23'0 0.0
2015-Aug-17 19:29N 67°06' E 015°23'0 0.0
2015-Aug-17 18:29N 67°06' E 015°23'0 0.0
2015-Aug-17 17:32N 67°06' E 015°23'0 0.0
2015-Aug-17 16:32N 67°06' E 015°23'0 0.0
2015-Aug-17 15:32N 67°06' E 015°23'0 0.0
2015-Aug-17 14:29N 67°06' E 015°23'0 0.0
2015-Aug-17 13:32N 67°06' E 015°23'0 0.0
2015-Aug-17 12:32N 67°06' E 015°23'0 0.1
2015-Aug-17 11:33N 67°07' E 015°24'8 7.6
2015-Aug-17 10:33N 67°13' E 015°15'1010.0
2015-Aug-17 09:33N 67°15' E 014°50'7 7.2
2015-Aug-17 08:33N 67°15' E 014°31'6 5.5
2015-Aug-17 07:33N 67°14' E 014°17'7 7.2
2015-Aug-17 06:33N 67°12' E 013°59'9 8.7
2015-Aug-17 05:33N 67°11' E 013°37'1010.2
2015-Aug-17 04:33N 67°06' E 013°15'44 8.5
2015-Aug-16 23:27N 66°37' E 011°51'7 7.5
2015-Aug-16 22:27N 66°31' E 011°40'  

Dump ship's entire track history